createdAt,value
2023-03-08T05:15:43.533Z,-1.78
2023-03-08T05:18:10.581Z,-1.92
2023-03-08T05:20:40.040Z,-2.33
2023-03-08T05:23:10.107Z,-2.09
2023-03-08T05:25:45.042Z,-2.31
2023-03-08T05:28:15.982Z,-2.02
2023-03-08T05:30:48.566Z,-1.92
2023-03-08T05:33:17.542Z,-2.16
2023-03-08T05:36:00.737Z,-2.30
2023-03-08T05:38:33.732Z,-1.91
2023-03-08T05:41:09.860Z,-1.95
2023-03-08T05:43:37.166Z,-2.37
2023-03-08T05:46:10.387Z,-2.18
2023-03-08T05:48:40.606Z,-2.03
2023-03-08T05:51:12.185Z,-1.99
2023-03-08T05:53:39.307Z,-1.65
2023-03-08T05:56:11.913Z,-1.82
2023-03-08T05:58:48.444Z,-2.30
2023-03-08T06:01:22.165Z,-1.93
2023-03-08T06:03:52.503Z,-1.65
2023-03-08T06:06:21.638Z,-1.86
2023-03-08T06:08:48.834Z,-1.65
2023-03-08T06:11:16.223Z,-2.42
2023-03-08T06:13:45.667Z,-2.17
2023-03-08T06:16:12.985Z,-2.03
2023-03-08T06:18:43.322Z,-2.33
2023-03-08T06:21:18.018Z,-1.87
2023-03-08T06:23:48.271Z,-1.89
2023-03-08T06:26:16.254Z,-2.28
2023-03-08T06:28:44.007Z,-2.09
2023-03-08T06:31:14.703Z,-1.99
2023-03-08T06:33:42.028Z,-1.66
2023-03-08T06:36:16.582Z,-1.90
2023-03-08T06:38:45.797Z,-2.00
2023-03-08T06:41:14.180Z,-1.86
2023-03-08T06:43:43.364Z,-1.76
2023-03-08T06:46:23.616Z,-1.76
2023-03-08T06:48:57.574Z,-1.62
2023-03-08T06:51:26.848Z,-1.58
2023-03-08T06:53:53.998Z,-1.84
2023-03-08T06:56:24.390Z,-1.95
2023-03-08T06:58:51.029Z,-1.90
2023-03-08T11:32:57.317Z,0.33
2023-03-08T11:35:49.768Z,-0.40
2023-03-08T11:38:24.781Z,-0.29
2023-03-08T11:40:57.281Z,0.07
2023-03-08T11:43:42.167Z,-0.76
2023-03-08T11:46:23.434Z,-0.36
2023-03-08T11:48:53.141Z,-0.04
2023-03-08T11:51:28.823Z,-0.31
2023-03-08T11:54:12.638Z,-0.46
2023-03-08T11:56:56.848Z,-0.16
2023-03-08T11:59:38.931Z,-0.53
2023-03-08T12:02:10.340Z,-0.27
2023-03-08T12:05:01.658Z,-0.79
2023-03-08T12:07:45.289Z,-0.33
2023-03-08T12:10:27.167Z,-0.84
2023-03-08T12:13:20.649Z,-1.31
2023-03-08T12:16:17.562Z,-1.04
2023-03-08T12:19:15.931Z,-0.71
2023-03-08T12:21:59.232Z,-0.32
2023-03-08T12:24:25.842Z,-0.02
2023-03-08T12:27:04.015Z,0.37
2023-03-08T12:29:43.905Z,-0.76
2023-03-08T12:32:13.270Z,0.07
2023-03-08T12:34:41.517Z,0.63
2023-03-08T12:37:22.167Z,0.12
2023-03-08T12:40:44.108Z,0.21
2023-03-08T12:43:19.696Z,-0.61
2023-03-08T12:45:47.493Z,0.11
2023-03-08T12:48:20.237Z,0.63
2023-03-08T12:51:26.737Z,0.35
2023-03-08T12:53:53.391Z,0.73
2023-03-08T12:56:29.944Z,0.67
2023-03-08T12:59:11.718Z,-0.39
2023-03-08T13:01:44.319Z,-0.46
2023-03-08T13:04:41.342Z,-0.30
2023-03-08T13:07:14.790Z,-0.37
2023-03-08T13:09:41.536Z,-0.27
2023-03-08T13:12:38.180Z,-0.72
2023-03-08T13:15:22.303Z,-0.37
2023-03-08T13:18:12.225Z,-0.82
2023-03-08T13:21:05.130Z,-0.44
2023-03-08T13:23:43.916Z,-0.29
2023-03-08T13:26:16.681Z,-0.50
2023-03-08T13:28:47.970Z,-0.89
2023-03-08T13:31:27.264Z,-0.40
2023-03-08T13:33:59.243Z,-0.19
2023-03-08T13:36:32.128Z,-0.49
2023-03-08T13:39:08.208Z,-0.32
2023-03-08T13:41:36.555Z,-0.04
2023-03-08T13:44:14.150Z,-0.21
2023-03-08T13:46:43.145Z,-0.68
2023-03-08T13:49:27.258Z,-0.48
2023-03-08T13:51:57.292Z,0.11
2023-03-08T13:54:30.482Z,-0.03
2023-03-08T13:57:00.160Z,-0.07
2023-03-08T13:59:27.094Z,-0.68
2023-03-08T14:01:55.448Z,-0.66
2023-03-08T14:04:25.402Z,-0.61
2023-03-08T14:06:54.408Z,-0.01
2023-03-08T14:09:21.865Z,0.14
2023-03-08T14:12:01.096Z,0.04
2023-03-08T14:14:32.596Z,-0.52
2023-03-08T14:16:59.995Z,0.10
2023-03-08T14:19:39.698Z,0.35
2023-03-08T14:22:28.713Z,-0.55
2023-03-08T14:25:05.270Z,-0.42
2023-03-08T14:27:42.621Z,-0.60
2023-03-08T14:30:35.671Z,-0.15
2023-03-08T14:33:14.423Z,-0.16
2023-03-08T14:35:45.193Z,-0.36
2023-03-08T14:38:23.819Z,-0.02
2023-03-08T14:40:51.288Z,-0.50
2023-03-08T14:43:24.449Z,-0.13
2023-03-08T14:46:01.986Z,-0.20
2023-03-08T14:48:34.256Z,0.06
2023-03-08T14:51:03.988Z,0.08
2023-03-08T14:53:35.197Z,-0.21
2023-03-08T14:56:15.197Z,-0.16
2023-03-08T14:58:53.785Z,-0.44
2023-03-08T15:01:26.214Z,-0.39
2023-03-08T15:03:52.943Z,-0.64
2023-03-08T15:06:22.893Z,-0.32
2023-03-08T15:08:50.123Z,-0.21
2023-03-08T15:11:17.092Z,-0.71
2023-03-08T15:13:45.905Z,-0.69
2023-03-08T15:16:14.460Z,-0.52
2023-03-08T15:18:41.470Z,-0.19
2023-03-08T15:21:13.964Z,-0.57
2023-03-08T15:23:41.946Z,-0.64
2023-03-08T15:26:11.882Z,-0.94
2023-03-08T15:28:38.423Z,-0.66
2023-03-08T15:31:05.535Z,-0.56
2023-03-08T15:33:32.121Z,-0.45
2023-03-08T15:35:58.970Z,-0.59
2023-03-08T15:38:25.752Z,-0.98
2023-03-08T15:40:52.362Z,-0.31
2023-03-08T15:43:18.885Z,-0.36
2023-03-08T15:45:45.590Z,0.05
2023-03-08T15:48:17.991Z,-0.33
2023-03-08T15:50:45.038Z,-0.15
2023-03-08T15:53:12.756Z,-0.41
2023-03-08T15:55:41.101Z,-0.59
2023-03-08T15:58:08.930Z,-0.56
2023-03-08T16:00:36.196Z,-0.28
2023-03-08T16:03:02.981Z,0.08
2023-03-08T16:05:30.610Z,-0.40
2023-03-08T16:08:02.840Z,-0.94
2023-03-08T16:10:33.517Z,-0.36
2023-03-08T16:13:00.083Z,-0.13
2023-03-08T16:15:27.054Z,-0.40
2023-03-08T16:17:53.686Z,-0.71
2023-03-08T16:20:23.145Z,-0.50
2023-03-08T16:22:50.596Z,-0.74
2023-03-08T16:25:17.485Z,-0.32
2023-03-08T16:27:44.038Z,0.06
2023-03-08T16:30:12.538Z,-0.51
2023-03-08T16:32:39.358Z,-0.30
2023-03-08T16:35:06.535Z,0.21
2023-03-08T16:37:33.132Z,0.16
2023-03-08T16:40:02.052Z,0.02
2023-03-08T16:42:29.829Z,-0.58
2023-03-08T16:44:56.916Z,-0.12
2023-03-08T16:47:25.234Z,-0.67
2023-03-08T16:49:52.953Z,-0.88
2023-03-08T16:52:19.732Z,-0.36
2023-03-08T16:54:46.353Z,-0.65
2023-03-08T16:57:19.841Z,-0.39
2023-03-08T16:59:47.579Z,-0.20
2023-03-08T17:02:17.881Z,-0.33
2023-03-08T17:04:45.125Z,-0.77
2023-03-08T17:07:11.811Z,-0.61
2023-03-08T17:09:39.062Z,-0.14
2023-03-08T17:12:06.537Z,-0.25
2023-03-08T17:14:34.822Z,-0.00
2023-03-08T17:17:01.935Z,0.20
2023-03-08T17:19:28.609Z,0.28
2023-03-08T17:21:55.834Z,-0.02
2023-03-08T17:24:22.694Z,-0.00
2023-03-08T17:26:51.238Z,0.23
2023-03-08T17:29:18.210Z,0.42
2023-03-08T17:31:45.021Z,-0.28
2023-03-08T17:34:11.663Z,-0.13
2023-03-08T17:36:38.886Z,-0.15
2023-03-08T17:39:06.180Z,0.23
2023-03-08T17:41:33.118Z,0.22
2023-03-08T17:43:59.874Z,0.42
2023-03-08T17:46:27.729Z,0.60
2023-03-08T17:48:55.860Z,0.08
2023-03-08T17:51:26.191Z,0.55
2023-03-08T17:53:53.333Z,0.22
2023-03-08T17:56:29.591Z,-0.17
2023-03-08T17:58:58.059Z,-0.55
2023-03-08T18:01:27.459Z,0.20
2023-03-08T18:03:55.462Z,-0.18
2023-03-08T18:06:37.860Z,0.32
2023-03-08T18:09:07.976Z,-0.34
2023-03-08T18:11:37.936Z,-0.43
2023-03-08T18:14:10.402Z,-0.59
2023-03-08T18:16:37.728Z,-0.42
2023-03-08T18:19:05.467Z,-0.67
2023-03-08T18:21:33.876Z,-0.40
2023-03-08T18:24:00.738Z,-0.12
2023-03-08T18:26:28.006Z,0.09
2023-03-08T18:28:54.619Z,0.10
2023-03-08T18:31:25.905Z,-0.28
2023-03-08T18:33:54.676Z,-0.16
2023-03-08T18:36:22.115Z,0.03
2023-03-08T18:38:48.844Z,-0.21
2023-03-08T18:41:25.449Z,0.16
2023-03-08T18:43:52.151Z,0.24
2023-03-08T18:46:19.216Z,0.51
2023-03-08T18:48:50.665Z,-0.13
2023-03-08T18:51:17.374Z,0.15
2023-03-08T18:53:44.599Z,0.42
2023-03-08T18:56:11.174Z,0.45
2023-03-08T18:58:37.878Z,0.61
2023-03-08T19:01:14.059Z,0.24
2023-03-08T19:03:41.789Z,0.40
2023-03-08T19:06:09.779Z,0.10
2023-03-08T19:08:36.556Z,0.45
2023-03-08T19:11:18.023Z,0.67
2023-03-08T19:13:44.854Z,0.82
2023-03-08T19:16:20.896Z,1.01
2023-03-08T19:18:49.244Z,0.99
2023-03-08T19:21:17.919Z,1.00
2023-03-08T19:23:44.685Z,0.84
2023-03-08T19:26:38.096Z,0.61
2023-03-08T19:29:11.363Z,1.01
2023-03-08T19:31:51.511Z,0.50
2023-03-08T19:34:19.939Z,0.91
2023-03-08T19:36:47.757Z,1.11
2023-03-08T19:39:20.053Z,1.09
2023-03-08T19:41:58.444Z,1.13
2023-03-08T19:44:26.041Z,1.24
2023-03-08T19:46:53.568Z,1.21
2023-03-08T19:49:22.604Z,1.15
2023-03-08T19:51:51.130Z,1.39
2023-03-08T19:54:19.193Z,1.46
2023-03-08T19:56:45.920Z,1.40
2023-03-08T19:59:12.737Z,1.18
2023-03-08T20:01:40.538Z,1.54
2023-03-08T20:04:08.551Z,1.57
2023-03-08T20:06:41.516Z,1.56
2023-03-08T20:09:09.763Z,1.63
2023-03-08T20:11:37.320Z,1.39
2023-03-08T20:14:04.873Z,1.53
2023-03-08T20:16:31.651Z,1.14
2023-03-08T20:18:58.542Z,1.66
2023-03-08T20:21:28.516Z,1.61
2023-03-08T20:23:56.210Z,1.43
2023-03-08T20:26:24.207Z,1.49
2023-03-08T20:28:51.691Z,1.45
2023-03-08T20:31:19.225Z,1.73
2023-03-08T20:33:46.103Z,1.27
2023-03-08T20:36:13.002Z,1.59
2023-03-08T20:38:39.912Z,1.67
2023-03-08T20:41:15.680Z,1.80
2023-03-08T20:43:44.155Z,1.79
2023-03-08T20:46:12.945Z,1.52
2023-03-08T20:48:41.176Z,1.30
2023-03-08T20:51:10.858Z,1.50
2023-03-08T20:53:37.796Z,1.54
2023-03-08T20:56:06.246Z,1.59
2023-03-08T20:58:33.056Z,1.49
2023-03-08T21:00:59.956Z,1.74
2023-03-08T21:03:27.510Z,1.58
2023-03-08T21:05:54.103Z,1.62
2023-03-08T21:08:24.185Z,1.59
2023-03-08T21:10:50.830Z,1.86
2023-03-08T21:13:17.686Z,1.33
2023-03-08T21:15:44.613Z,1.69
2023-03-08T21:18:11.280Z,1.69
2023-03-08T21:20:38.480Z,1.49
2023-03-08T21:23:05.073Z,1.35
2023-03-08T21:25:35.701Z,1.66
2023-03-08T21:28:02.250Z,1.58
2023-03-08T21:30:30.585Z,1.74
2023-03-08T21:32:57.162Z,1.61
2023-03-08T21:35:24.013Z,1.82
2023-03-08T21:37:50.788Z,1.80
2023-03-08T21:40:17.580Z,2.05
2023-03-08T21:42:44.122Z,2.04
2023-03-08T21:45:10.940Z,2.04
2023-03-08T21:47:37.824Z,2.29
2023-03-08T21:50:04.846Z,2.12
2023-03-08T21:52:31.453Z,2.21
2023-03-08T21:54:58.060Z,2.13
2023-03-08T21:57:24.661Z,2.31
2023-03-08T21:59:51.245Z,2.19
